Nearby METAR Reports

 

KGRB - Ashwaubenon, Wisconsin, USA
Distance from station: WSW 10mi, 16km
Updated: 11/18/2017 8:53am
Overcast
Overcast
 Wind from NNW
Wind: NNW 13 mph , 20 km/h
Temperature: 37°F , 3°C
Wind Chill: 29°F , -2°C
Dew Point: 36°F , 2°C
Humidity: 93%
Barometer: 29.60 inHg , 1002.4 hPa
Clouds: Overcast
Visibility: 10 miles , 16 km
Cloud details: Overcast 1200 ft
2017/11/18 14:53 KGRB 181453Z 34011KT 10SM OVC012 03/02 A2960 RMK AO2 SLP030 T00330022 50008
KOCQ - Oconto, Wisconsin, USA
Distance from station: N 24mi, 39km
Updated: 11/18/2017 9:15am
Overcast
Overcast
 Wind from NNW
Wind: NNW 7 mph , 11 km/h
Temperature: 37°F , 3°C
Wind Chill: 32°F , 0°C
Dew Point: 34°F , 1°C
Humidity: 87%
Barometer: 29.61 inHg , 1002.7 hPa
Clouds: Overcast
Visibility: 7 miles , 11 km
Cloud details: Overcast 1000 ft
2017/11/18 15:15 KOCQ 181515Z AUTO 33006KT 7SM OVC010 03/01 A2961 RMK AO1 T00260014
KMTW - Manitowac Muni, Wisconsin, USA
Distance from station: SSE 31mi, 49km
Updated: 11/18/2017 8:56am
Overcast
Overcast
 Wind from N
Wind: N 10 mph , 17 km/h
Temperature: 37°F , 3°C
Wind Chill: 30°F , -1°C
Dew Point: 36°F , 2°C
Humidity: 93%
Barometer: 29.57 inHg , 1001.4 hPa
Clouds: Overcast
Visibility: 10 miles , 16 km
Cloud details: Overcast 700 ft
2017/11/18 14:56 KMTW 181456Z AUTO 35009KT 10SM OVC007 03/02 A2957 RMK AO2 SLP037 60000 T00280017 50008
 
KATW - Appleton/Outagam, Wisconsin, USA
Distance from station: WSW 33mi, 54km
Updated: 11/18/2017 8:45am
Mist, Overcast
Mist, Overcast
 Wind from NNW
Wind: NNW 12 mph , 19 km/h
Temperature: 36°F , 2°C
Wind Chill: 28°F , -2°C
Dew Point: 36°F , 2°C
Humidity: 100%
Barometer: 29.59 inHg , 1002 hPa
Summary: Mist
Clouds: Overcast
Visibility: 5 miles , 8 km
Cloud details: Overcast 700 ft
2017/11/18 14:45 KATW 181445Z 34010KT 5SM BR OVC007 02/02 A2959
KSUE - Sturgeon Bay, Wisconsin, USA
Distance from station: NE 34mi, 55km
Updated: 11/18/2017 8:56am
Overcast
Overcast
 Wind from NNW
Wind: NNW 15 mph , 24 km/h
Temperature: 37°F , 3°C
Wind Chill: 28°F , -2°C
Dew Point: 36°F , 2°C
Humidity: 93%
Barometer: 29.59 inHg , 1002 hPa
Clouds: Overcast
Visibility: 8 miles , 13 km
Cloud details: Overcast 800 ft
2017/11/18 14:56 KSUE 181456Z AUTO 34013KT 8SM OVC008 03/02 A2959 RMK AO2 RAB22E44 SLP045 P0000 60000 T00330022 53007
KEZS - Shawano Muni, Wisconsin, USA
Distance from station: WNW 36mi, 58km
Updated: 11/18/2017 9:15am
Overcast
Overcast
 Wind from N
Wind: N 5 mph , 7 km/h
Temperature: 39°F , 4°C
Wind Chill: 35°F , 2°C
Dew Point: 36°F , 2°C
Humidity: 87%
Barometer: 29.62 inHg , 1003 hPa
Clouds: Overcast
Visibility: 10 miles , 16 km
Cloud details: Overcast 1500 ft
2017/11/18 15:15 KEZS 181515Z AUTO 35004KT 10SM OVC015 04/02 A2962 RMK AO2 T00350017
 
KCLI - Clintonville, Wisconsin, USA
Distance from station: W 40mi, 64km
Updated: 11/18/2017 9:21am
Overcast
Overcast
 Wind from NNW
Wind: NNW 7 mph , 11 km/h
Temperature: 37°F , 3°C
Wind Chill: 32°F , 0°C
Dew Point: 34°F , 1°C
Humidity: 87%
Barometer: 29.62 inHg , 1003 hPa
Clouds: Overcast
Visibility: 10 miles , 16 km
Cloud details: Overcast 1500 ft
2017/11/18 15:21 KCLI 181521Z AUTO 34006KT 10SM OVC015 03/01 A2962 RMK AO2
KMNM - Menominee, Michigan, USA
Distance from station: NNE 44mi, 72km
Updated: 11/18/2017 8:56am
Mist, Overcast
Mist, Overcast
 Wind from NNW
Wind: NNW 7 mph , 11 km/h
Temperature: 37°F , 3°C
Wind Chill: 32°F , 0°C
Dew Point: 36°F , 2°C
Humidity: 93%
Barometer: 29.61 inHg , 1002.7 hPa
Summary: Mist
Clouds: Overcast
Visibility: 3 miles , 5 km
Cloud details: Overcast 600 ft
2017/11/18 14:56 KMNM 181456Z AUTO 34006KT 3SM BR OVC006 03/02 A2961 RMK AO2 SLP050 T00280017 53005 $
KOSH - Oshkosh, Wisconsin, USA
Distance from station: SW 49mi, 78km
Updated: 11/18/2017 8:53am
Overcast
Overcast
 Wind from NNW
Wind: NNW 14 mph , 22 km/h
Temperature: 36°F , 2°C
Wind Chill: 27°F , -3°C
Dew Point: 34°F , 1°C
Humidity: 93%
Barometer: 29.60 inHg , 1002.4 hPa
Clouds: Overcast
Visibility: 9 miles , 14 km
Cloud details: Overcast 1200 ft
2017/11/18 14:53 KOSH 181453Z 33012KT 9SM OVC012 02/01 A2960 RMK AO2 SLP032 T00220011 50011